sensor_id;sensor_type;location;lat;lon;timestamp;temperature;humidity
66190;DHT22;52992;52.084;5.412;2023-09-18T00:00:34;21.40;80.30
66190;DHT22;52992;52.084;5.412;2023-09-18T00:03:02;21.40;80.30
66190;DHT22;52992;52.084;5.412;2023-09-18T00:05:30;21.40;80.40
66190;DHT22;52992;52.084;5.412;2023-09-18T00:07:58;21.50;80.50
66190;DHT22;52992;52.084;5.412;2023-09-18T00:10:26;21.50;80.50
66190;DHT22;52992;52.084;5.412;2023-09-18T00:12:53;21.50;80.40
66190;DHT22;52992;52.084;5.412;2023-09-18T00:15:20;21.50;80.50
66190;DHT22;52992;52.084;5.412;2023-09-18T00:17:47;21.50;80.40
66190;DHT22;52992;52.084;5.412;2023-09-18T00:20:14;21.50;80.30
66190;DHT22;52992;52.084;5.412;2023-09-18T00:22:44;21.50;80.20
66190;DHT22;52992;52.084;5.412;2023-09-18T00:25:11;21.50;80.20
66190;DHT22;52992;52.084;5.412;2023-09-18T00:27:37;21.50;80.90
66190;DHT22;52992;52.084;5.412;2023-09-18T00:30:05;21.50;80.10
66190;DHT22;52992;52.084;5.412;2023-09-18T00:32:33;21.50;80.00
66190;DHT22;52992;52.084;5.412;2023-09-18T00:35:00;21.50;80.20
66190;DHT22;52992;52.084;5.412;2023-09-18T00:37:28;21.50;80.20
66190;DHT22;52992;52.084;5.412;2023-09-18T00:39:55;21.40;80.10
66190;DHT22;52992;52.084;5.412;2023-09-18T00:42:22;21.40;80.10
66190;DHT22;52992;52.084;5.412;2023-09-18T00:44:49;21.40;80.00
66190;DHT22;52992;52.084;5.412;2023-09-18T00:47:17;21.40;80.00
66190;DHT22;52992;52.084;5.412;2023-09-18T00:49:47;21.40;79.90
66190;DHT22;52992;52.084;5.412;2023-09-18T00:52:16;21.40;79.80
66190;DHT22;52992;52.084;5.412;2023-09-18T00:54:44;21.40;79.80
66190;DHT22;52992;52.084;5.412;2023-09-18T00:57:13;21.40;79.80
66190;DHT22;52992;52.084;5.412;2023-09-18T00:59:41;21.40;79.80
66190;DHT22;52992;52.084;5.412;2023-09-18T01:02:08;21.40;79.80
66190;DHT22;52992;52.084;5.412;2023-09-18T01:04:35;21.40;79.90
66190;DHT22;52992;52.084;5.412;2023-09-18T01:07:04;21.40;79.80
66190;DHT22;52992;52.084;5.412;2023-09-18T01:09:31;21.30;80.10
66190;DHT22;52992;52.084;5.412;2023-09-18T01:12:17;21.40;80.10
66190;DHT22;52992;52.084;5.412;2023-09-18T01:15:02;21.40;80.00
66190;DHT22;52992;52.084;5.412;2023-09-18T01:17:34;21.40;79.80
66190;DHT22;52992;52.084;5.412;2023-09-18T01:20:04;21.40;79.70
66190;DHT22;52992;52.084;5.412;2023-09-18T01:22:32;21.40;79.70
66190;DHT22;52992;52.084;5.412;2023-09-18T01:24:59;21.40;79.60
66190;DHT22;52992;52.084;5.412;2023-09-18T01:27:26;21.40;79.70
66190;DHT22;52992;52.084;5.412;2023-09-18T01:29:53;21.40;79.80
66190;DHT22;52992;52.084;5.412;2023-09-18T01:32:24;21.40;79.90
66190;DHT22;52992;52.084;5.412;2023-09-18T01:34:55;21.40;79.90
66190;DHT22;52992;52.084;5.412;2023-09-18T01:37:24;21.40;79.80
66190;DHT22;52992;52.084;5.412;2023-09-18T01:39:52;21.40;79.80
66190;DHT22;52992;52.084;5.412;2023-09-18T01:42:20;21.40;79.80
66190;DHT22;52992;52.084;5.412;2023-09-18T01:44:49;21.40;79.70
66190;DHT22;52992;52.084;5.412;2023-09-18T01:47:18;21.40;79.70
66190;DHT22;52992;52.084;5.412;2023-09-18T01:49:47;21.40;79.60
66190;DHT22;52992;52.084;5.412;2023-09-18T01:52:14;21.40;79.60
66190;DHT22;52992;52.084;5.412;2023-09-18T01:54:41;21.40;79.50
66190;DHT22;52992;52.084;5.412;2023-09-18T01:57:08;21.40;79.50
66190;DHT22;52992;52.084;5.412;2023-09-18T01:59:35;21.40;79.50
66190;DHT22;52992;52.084;5.412;2023-09-18T02:02:05;21.40;79.50
66190;DHT22;52992;52.084;5.412;2023-09-18T02:04:35;21.50;79.50
66190;DHT22;52992;52.084;5.412;2023-09-18T02:07:24;21.40;79.70
66190;DHT22;52992;52.084;5.412;2023-09-18T02:09:51;21.40;79.80
66190;DHT22;52992;52.084;5.412;2023-09-18T02:12:18;21.40;79.70
66190;DHT22;52992;52.084;5.412;2023-09-18T02:14:47;21.50;79.90
66190;DHT22;52992;52.084;5.412;2023-09-18T02:17:14;21.50;79.90
66190;DHT22;52992;52.084;5.412;2023-09-18T02:19:41;21.50;80.00
66190;DHT22;52992;52.084;5.412;2023-09-18T02:22:09;21.60;80.00
66190;DHT22;52992;52.084;5.412;2023-09-18T02:24:36;21.60;80.10
66190;DHT22;52992;52.084;5.412;2023-09-18T02:27:04;21.60;80.10
66190;DHT22;52992;52.084;5.412;2023-09-18T02:29:32;21.70;80.20
66190;DHT22;52992;52.084;5.412;2023-09-18T02:31:59;21.70;80.50
66190;DHT22;52992;52.084;5.412;2023-09-18T02:34:26;21.80;80.60
66190;DHT22;52992;52.084;5.412;2023-09-18T02:36:53;21.80;80.30
66190;DHT22;52992;52.084;5.412;2023-09-18T02:39:20;21.90;80.30
66190;DHT22;52992;52.084;5.412;2023-09-18T02:41:49;21.90;80.20
66190;DHT22;52992;52.084;5.412;2023-09-18T02:44:16;22.00;80.10
66190;DHT22;52992;52.084;5.412;2023-09-18T02:46:43;22.00;80.00
66190;DHT22;52992;52.084;5.412;2023-09-18T02:49:11;22.10;79.90
66190;DHT22;52992;52.084;5.412;2023-09-18T02:51:38;22.10;79.70
66190;DHT22;52992;52.084;5.412;2023-09-18T02:54:05;22.10;79.60
66190;DHT22;52992;52.084;5.412;2023-09-18T02:56:32;22.20;79.50
66190;DHT22;52992;52.084;5.412;2023-09-18T02:58:59;22.20;79.30
66190;DHT22;52992;52.084;5.412;2023-09-18T03:01:26;22.30;79.20
66190;DHT22;52992;52.084;5.412;2023-09-18T03:03:54;22.20;79.00
66190;DHT22;52992;52.084;5.412;2023-09-18T03:06:21;22.20;78.80
66190;DHT22;52992;52.084;5.412;2023-09-18T03:08:48;22.20;78.80
66190;DHT22;52992;52.084;5.412;2023-09-18T03:11:16;22.20;78.60
66190;DHT22;52992;52.084;5.412;2023-09-18T03:13:45;22.20;78.60
66190;DHT22;52992;52.084;5.412;2023-09-18T03:16:15;22.20;78.90
66190;DHT22;52992;52.084;5.412;2023-09-18T03:18:43;22.10;78.90
66190;DHT22;52992;52.084;5.412;2023-09-18T03:21:11;22.10;78.70
66190;DHT22;52992;52.084;5.412;2023-09-18T03:23:38;22.10;78.70
66190;DHT22;52992;52.084;5.412;2023-09-18T03:26:05;22.10;78.60
66190;DHT22;52992;52.084;5.412;2023-09-18T03:28:32;22.10;78.50
66190;DHT22;52992;52.084;5.412;2023-09-18T03:30:59;22.10;78.50
66190;DHT22;52992;52.084;5.412;2023-09-18T03:33:27;22.10;78.50
66190;DHT22;52992;52.084;5.412;2023-09-18T03:35:54;22.10;78.40
66190;DHT22;52992;52.084;5.412;2023-09-18T03:38:25;22.10;78.40
66190;DHT22;52992;52.084;5.412;2023-09-18T03:40:53;22.10;78.30
66190;DHT22;52992;52.084;5.412;2023-09-18T03:43:20;22.10;78.40
66190;DHT22;52992;52.084;5.412;2023-09-18T03:45:48;22.10;78.40
66190;DHT22;52992;52.084;5.412;2023-09-18T03:48:16;22.10;78.50
66190;DHT22;52992;52.084;5.412;2023-09-18T03:50:43;22.10;78.30
66190;DHT22;52992;52.084;5.412;2023-09-18T03:53:10;22.10;78.30
66190;DHT22;52992;52.084;5.412;2023-09-18T03:55:38;22.10;78.40
66190;DHT22;52992;52.084;5.412;2023-09-18T03:58:05;22.10;78.50
66190;DHT22;52992;52.084;5.412;2023-09-18T04:00:32;22.20;78.60
66190;DHT22;52992;52.084;5.412;2023-09-18T04:02:59;22.10;78.90
66190;DHT22;52992;52.084;5.412;2023-09-18T04:05:26;22.10;79.00
66190;DHT22;52992;52.084;5.412;2023-09-18T04:07:55;22.20;79.00
66190;DHT22;52992;52.084;5.412;2023-09-18T04:10:22;22.20;79.00
66190;DHT22;52992;52.084;5.412;2023-09-18T04:12:51;22.20;79.20
66190;DHT22;52992;52.084;5.412;2023-09-18T04:15:19;22.30;79.30
66190;DHT22;52992;52.084;5.412;2023-09-18T04:17:47;22.30;79.50
66190;DHT22;52992;52.084;5.412;2023-09-18T04:20:15;22.30;79.80
66190;DHT22;52992;52.084;5.412;2023-09-18T04:22:44;22.40;79.80
66190;DHT22;52992;52.084;5.412;2023-09-18T04:25:12;22.40;79.80
66190;DHT22;52992;52.084;5.412;2023-09-18T04:27:39;22.50;80.00
66190;DHT22;52992;52.084;5.412;2023-09-18T04:30:07;22.50;80.60
66190;DHT22;52992;52.084;5.412;2023-09-18T04:32:40;22.60;79.70
66190;DHT22;52992;52.084;5.412;2023-09-18T04:35:08;22.50;79.80
66190;DHT22;52992;52.084;5.412;2023-09-18T04:37:37;22.60;80.00
66190;DHT22;52992;52.084;5.412;2023-09-18T04:40:07;22.70;80.00
66190;DHT22;52992;52.084;5.412;2023-09-18T04:42:38;22.60;79.90
66190;DHT22;52992;52.084;5.412;2023-09-18T04:45:10;22.70;80.10
66190;DHT22;52992;52.084;5.412;2023-09-18T04:47:37;22.80;80.00
66190;DHT22;52992;52.084;5.412;2023-09-18T04:50:05;22.80;80.00
66190;DHT22;52992;52.084;5.412;2023-09-18T04:52:39;22.80;80.00
66190;DHT22;52992;52.084;5.412;2023-09-18T04:55:13;22.80;79.50
66190;DHT22;52992;52.084;5.412;2023-09-18T04:57:40;22.80;79.60
66190;DHT22;52992;52.084;5.412;2023-09-18T05:00:08;22.50;81.60
66190;DHT22;52992;52.084;5.412;2023-09-18T05:02:44;22.10;84.30
66190;DHT22;52992;52.084;5.412;2023-09-18T05:05:12;21.80;86.20
66190;DHT22;52992;52.084;5.412;2023-09-18T05:07:40;21.50;88.40
66190;DHT22;52992;52.084;5.412;2023-09-18T05:10:08;21.30;90.30
66190;DHT22;52992;52.084;5.412;2023-09-18T05:12:35;21.30;91.80
66190;DHT22;52992;52.084;5.412;2023-09-18T05:15:02;21.40;92.30
66190;DHT22;52992;52.084;5.412;2023-09-18T05:17:45;21.40;91.90
66190;DHT22;52992;52.084;5.412;2023-09-18T05:20:23;21.40;92.20
66190;DHT22;52992;52.084;5.412;2023-09-18T05:22:52;21.50;91.80
66190;DHT22;52992;52.084;5.412;2023-09-18T05:25:23;21.60;91.60
66190;DHT22;52992;52.084;5.412;2023-09-18T05:27:53;21.70;91.30
66190;DHT22;52992;52.084;5.412;2023-09-18T05:30:31;21.80;90.80
66190;DHT22;52992;52.084;5.412;2023-09-18T05:33:02;21.80;91.30
66190;DHT22;52992;52.084;5.412;2023-09-18T05:35:33;21.90;91.20
66190;DHT22;52992;52.084;5.412;2023-09-18T05:38:00;21.90;91.10
66190;DHT22;52992;52.084;5.412;2023-09-18T05:40:27;22.00;90.70
66190;DHT22;52992;52.084;5.412;2023-09-18T05:42:55;22.10;90.50
66190;DHT22;52992;52.084;5.412;2023-09-18T05:45:23;22.20;90.10
66190;DHT22;52992;52.084;5.412;2023-09-18T05:47:50;22.20;89.80
66190;DHT22;52992;52.084;5.412;2023-09-18T05:50:18;22.20;90.00
66190;DHT22;52992;52.084;5.412;2023-09-18T05:52:47;22.30;89.70
66190;DHT22;52992;52.084;5.412;2023-09-18T05:55:15;22.30;89.50
66190;DHT22;52992;52.084;5.412;2023-09-18T05:57:42;22.40;89.00
66190;DHT22;52992;52.084;5.412;2023-09-18T06:00:10;22.40;89.10
66190;DHT22;52992;52.084;5.412;2023-09-18T06:02:43;22.50;89.00
66190;DHT22;52992;52.084;5.412;2023-09-18T06:05:11;22.50;88.80
66190;DHT22;52992;52.084;5.412;2023-09-18T06:07:39;22.50;88.60
66190;DHT22;52992;52.084;5.412;2023-09-18T06:10:06;22.50;88.60
66190;DHT22;52992;52.084;5.412;2023-09-18T06:12:33;22.50;88.60
66190;DHT22;52992;52.084;5.412;2023-09-18T06:15:00;22.60;88.50
66190;DHT22;52992;52.084;5.412;2023-09-18T06:17:27;22.60;88.40
66190;DHT22;52992;52.084;5.412;2023-09-18T06:19:54;22.60;88.20
66190;DHT22;52992;52.084;5.412;2023-09-18T06:22:22;22.50;88.00
66190;DHT22;52992;52.084;5.412;2023-09-18T06:24:49;22.50;88.60
66190;DHT22;52992;52.084;5.412;2023-09-18T06:27:16;22.50;89.00
66190;DHT22;52992;52.084;5.412;2023-09-18T06:29:43;22.60;89.10
66190;DHT22;52992;52.084;5.412;2023-09-18T06:32:10;22.60;88.90
66190;DHT22;52992;52.084;5.412;2023-09-18T06:34:37;22.50;88.70
66190;DHT22;52992;52.084;5.412;2023-09-18T06:37:05;22.60;88.80
66190;DHT22;52992;52.084;5.412;2023-09-18T06:39:34;22.60;88.80
66190;DHT22;52992;52.084;5.412;2023-09-18T06:42:01;22.60;88.70
66190;DHT22;52992;52.084;5.412;2023-09-18T06:44:28;22.60;88.10
66190;DHT22;52992;52.084;5.412;2023-09-18T06:46:55;22.60;88.30
66190;DHT22;52992;52.084;5.412;2023-09-18T06:49:22;22.60;88.70
66190;DHT22;52992;52.084;5.412;2023-09-18T06:51:49;22.60;89.00
66190;DHT22;52992;52.084;5.412;2023-09-18T06:54:16;22.70;88.50
66190;DHT22;52992;52.084;5.412;2023-09-18T06:56:43;22.60;88.10
66190;DHT22;52992;52.084;5.412;2023-09-18T06:59:11;22.60;88.70
66190;DHT22;52992;52.084;5.412;2023-09-18T07:01:39;22.70;88.70
66190;DHT22;52992;52.084;5.412;2023-09-18T07:04:07;22.70;88.50
66190;DHT22;52992;52.084;5.412;2023-09-18T07:06:35;22.80;88.60
66190;DHT22;52992;52.084;5.412;2023-09-18T07:09:02;22.80;88.20
66190;DHT22;52992;52.084;5.412;2023-09-18T07:11:31;22.80;88.20
66190;DHT22;52992;52.084;5.412;2023-09-18T07:13:58;22.80;88.20
66190;DHT22;52992;52.084;5.412;2023-09-18T07:16:25;22.90;88.00
66190;DHT22;52992;52.084;5.412;2023-09-18T07:18:52;22.90;87.90
66190;DHT22;52992;52.084;5.412;2023-09-18T07:21:20;22.90;88.50
66190;DHT22;52992;52.084;5.412;2023-09-18T07:23:47;22.90;88.00
66190;DHT22;52992;52.084;5.412;2023-09-18T07:26:14;22.90;87.80
66190;DHT22;52992;52.084;5.412;2023-09-18T07:28:41;23.00;88.00
66190;DHT22;52992;52.084;5.412;2023-09-18T07:31:11;23.00;88.50
66190;DHT22;52992;52.084;5.412;2023-09-18T07:33:39;23.10;87.50
66190;DHT22;52992;52.084;5.412;2023-09-18T07:36:06;23.00;87.30
66190;DHT22;52992;52.084;5.412;2023-09-18T07:38:33;23.10;87.10
66190;DHT22;52992;52.084;5.412;2023-09-18T07:41:00;23.10;87.00
66190;DHT22;52992;52.084;5.412;2023-09-18T07:43:27;23.20;87.50
66190;DHT22;52992;52.084;5.412;2023-09-18T07:45:54;23.20;87.20
66190;DHT22;52992;52.084;5.412;2023-09-18T07:48:22;23.30;87.00
66190;DHT22;52992;52.084;5.412;2023-09-18T07:50:49;23.30;86.70
66190;DHT22;52992;52.084;5.412;2023-09-18T07:53:18;23.20;86.90
66190;DHT22;52992;52.084;5.412;2023-09-18T07:55:48;23.20;86.80
66190;DHT22;52992;52.084;5.412;2023-09-18T07:58:16;23.30;87.00
66190;DHT22;52992;52.084;5.412;2023-09-18T08:00:43;23.30;86.80
66190;DHT22;52992;52.084;5.412;2023-09-18T08:03:10;23.30;86.50
66190;DHT22;52992;52.084;5.412;2023-09-18T08:05:37;23.40;86.30
66190;DHT22;52992;52.084;5.412;2023-09-18T08:08:04;23.30;86.00
66190;DHT22;52992;52.084;5.412;2023-09-18T08:10:32;23.40;86.00
66190;DHT22;52992;52.084;5.412;2023-09-18T08:13:03;23.40;86.90
66190;DHT22;52992;52.084;5.412;2023-09-18T08:15:30;23.50;86.10
66190;DHT22;52992;52.084;5.412;2023-09-18T08:17:57;23.50;85.90
66190;DHT22;52992;52.084;5.412;2023-09-18T08:20:26;23.50;85.80
66190;DHT22;52992;52.084;5.412;2023-09-18T08:22:53;23.50;85.90
66190;DHT22;52992;52.084;5.412;2023-09-18T08:25:24;23.50;85.50
66190;DHT22;52992;52.084;5.412;2023-09-18T08:27:51;23.50;85.40
66190;DHT22;52992;52.084;5.412;2023-09-18T08:30:18;23.50;85.50
66190;DHT22;52992;52.084;5.412;2023-09-18T08:32:48;23.60;85.50
66190;DHT22;52992;52.084;5.412;2023-09-18T08:35:15;23.70;85.80
66190;DHT22;52992;52.084;5.412;2023-09-18T08:37:43;23.90;86.20
66190;DHT22;52992;52.084;5.412;2023-09-18T08:40:14;24.10;85.50
66190;DHT22;52992;52.084;5.412;2023-09-18T08:42:52;24.20;84.80
66190;DHT22;52992;52.084;5.412;2023-09-18T08:45:31;24.30;84.50
66190;DHT22;52992;52.084;5.412;2023-09-18T08:48:00;24.20;83.90
66190;DHT22;52992;52.084;5.412;2023-09-18T08:50:29;24.30;85.00
66190;DHT22;52992;52.084;5.412;2023-09-18T08:52:56;24.40;85.20
66190;DHT22;52992;52.084;5.412;2023-09-18T08:55:24;24.60;84.60
66190;DHT22;52992;52.084;5.412;2023-09-18T08:57:53;24.80;84.60
66190;DHT22;52992;52.084;5.412;2023-09-18T09:00:21;24.90;84.80
66190;DHT22;52992;52.084;5.412;2023-09-18T09:02:48;25.00;83.90
66190;DHT22;52992;52.084;5.412;2023-09-18T09:05:18;25.10;83.70
66190;DHT22;52992;52.084;5.412;2023-09-18T09:07:45;25.10;83.00
66190;DHT22;52992;52.084;5.412;2023-09-18T09:10:12;25.10;83.90
66190;DHT22;52992;52.084;5.412;2023-09-18T09:12:56;25.20;83.30
66190;DHT22;52992;52.084;5.412;2023-09-18T09:15:27;25.30;83.60
66190;DHT22;52992;52.084;5.412;2023-09-18T09:18:06;25.50;83.20
66190;DHT22;52992;52.084;5.412;2023-09-18T09:20:34;25.80;82.60
66190;DHT22;52992;52.084;5.412;2023-09-18T09:23:06;26.00;81.40
66190;DHT22;52992;52.084;5.412;2023-09-18T09:25:34;26.10;80.70
66190;DHT22;52992;52.084;5.412;2023-09-18T09:28:06;26.10;80.70
66190;DHT22;52992;52.084;5.412;2023-09-18T09:30:35;26.30;80.50
66190;DHT22;52992;52.084;5.412;2023-09-18T09:33:04;26.70;79.70
66190;DHT22;52992;52.084;5.412;2023-09-18T09:35:36;27.10;78.50
66190;DHT22;52992;52.084;5.412;2023-09-18T09:38:12;27.60;76.90
66190;DHT22;52992;52.084;5.412;2023-09-18T09:40:43;27.90;74.00
66190;DHT22;52992;52.084;5.412;2023-09-18T09:43:12;27.80;73.50
66190;DHT22;52992;52.084;5.412;2023-09-18T09:45:42;27.50;73.60
66190;DHT22;52992;52.084;5.412;2023-09-18T09:48:09;27.10;75.10
66190;DHT22;52992;52.084;5.412;2023-09-18T09:50:47;26.50;75.50
66190;DHT22;52992;52.084;5.412;2023-09-18T09:53:15;26.10;77.20
66190;DHT22;52992;52.084;5.412;2023-09-18T09:55:42;25.80;77.90
66190;DHT22;52992;52.084;5.412;2023-09-18T09:58:10;25.50;78.80
66190;DHT22;52992;52.084;5.412;2023-09-18T10:00:45;25.20;79.10
66190;DHT22;52992;52.084;5.412;2023-09-18T10:03:14;25.10;79.70
66190;DHT22;52992;52.084;5.412;2023-09-18T10:05:44;24.90;79.50
66190;DHT22;52992;52.084;5.412;2023-09-18T10:10:49;24.70;79.60
66190;DHT22;52992;52.084;5.412;2023-09-18T10:13:26;24.70;79.60
66190;DHT22;52992;52.084;5.412;2023-09-18T10:15:56;24.70;79.80
66190;DHT22;52992;52.084;5.412;2023-09-18T10:18:36;24.70;79.50
66190;DHT22;52992;52.084;5.412;2023-09-18T10:24:19;24.80;78.10
66190;DHT22;52992;52.084;5.412;2023-09-18T10:27:01;24.80;78.70
66190;DHT22;52992;52.084;5.412;2023-09-18T10:29:33;25.10;77.80
66190;DHT22;52992;52.084;5.412;2023-09-18T10:32:03;25.30;75.90
66190;DHT22;52992;52.084;5.412;2023-09-18T10:34:32;25.30;76.50
66190;DHT22;52992;52.084;5.412;2023-09-18T10:37:02;25.90;74.20
66190;DHT22;52992;52.084;5.412;2023-09-18T10:39:35;26.80;69.40
66190;DHT22;52992;52.084;5.412;2023-09-18T10:42:07;26.70;68.70
66190;DHT22;52992;52.084;5.412;2023-09-18T10:44:35;26.40;70.50
66190;DHT22;52992;52.084;5.412;2023-09-18T10:47:04;26.10;72.70
66190;DHT22;52992;52.084;5.412;2023-09-18T10:49:35;26.20;72.20
66190;DHT22;52992;52.084;5.412;2023-09-18T10:52:03;26.20;72.50
66190;DHT22;52992;52.084;5.412;2023-09-18T10:54:31;26.40;71.90
66190;DHT22;52992;52.084;5.412;2023-09-18T10:56:58;26.50;71.10
66190;DHT22;52992;52.084;5.412;2023-09-18T10:59:27;26.30;72.50
66190;DHT22;52992;52.084;5.412;2023-09-18T11:01:54;26.50;71.20
66190;DHT22;52992;52.084;5.412;2023-09-18T11:04:23;26.40;70.90
66190;DHT22;52992;52.084;5.412;2023-09-18T11:09:25;25.60;73.60
66190;DHT22;52992;52.084;5.412;2023-09-18T11:11:53;25.40;75.40
66190;DHT22;52992;52.084;5.412;2023-09-18T11:14:45;25.40;75.50
66190;DHT22;52992;52.084;5.412;2023-09-18T11:17:35;25.60;75.50
66190;DHT22;52992;52.084;5.412;2023-09-18T11:22:39;26.00;74.70
66190;DHT22;52992;52.084;5.412;2023-09-18T11:27:57;26.90;69.80
66190;DHT22;52992;52.084;5.412;2023-09-18T11:30:25;26.70;70.70
66190;DHT22;52992;52.084;5.412;2023-09-18T11:32:52;26.60;72.00
66190;DHT22;52992;52.084;5.412;2023-09-18T11:35:20;26.50;71.30
66190;DHT22;52992;52.084;5.412;2023-09-18T11:38:07;26.30;71.80
66190;DHT22;52992;52.084;5.412;2023-09-18T11:40:36;26.20;73.40
66190;DHT22;52992;52.084;5.412;2023-09-18T11:43:19;26.20;72.70
66190;DHT22;52992;52.084;5.412;2023-09-18T11:45:51;25.90;73.00
66190;DHT22;52992;52.084;5.412;2023-09-18T11:48:20;25.80;74.00
66190;DHT22;52992;52.084;5.412;2023-09-18T11:50:47;25.60;73.90
66190;DHT22;52992;52.084;5.412;2023-09-18T11:53:18;25.50;74.90
66190;DHT22;52992;52.084;5.412;2023-09-18T11:55:47;25.90;73.20
66190;DHT22;52992;52.084;5.412;2023-09-18T11:58:14;25.90;71.90
66190;DHT22;52992;52.084;5.412;2023-09-18T12:00:42;25.80;73.00
66190;DHT22;52992;52.084;5.412;2023-09-18T12:03:19;25.50;74.20
66190;DHT22;52992;52.084;5.412;2023-09-18T12:06:01;25.40;75.40
66190;DHT22;52992;52.084;5.412;2023-09-18T12:08:32;25.70;74.20
66190;DHT22;52992;52.084;5.412;2023-09-18T12:11:00;25.70;74.60
66190;DHT22;52992;52.084;5.412;2023-09-18T12:13:32;25.50;74.40
66190;DHT22;52992;52.084;5.412;2023-09-18T12:16:01;25.20;74.40
66190;DHT22;52992;52.084;5.412;2023-09-18T12:18:32;25.00;75.50
66190;DHT22;52992;52.084;5.412;2023-09-18T12:21:02;24.90;76.90
66190;DHT22;52992;52.084;5.412;2023-09-18T12:23:37;24.80;77.20
66190;DHT22;52992;52.084;5.412;2023-09-18T12:26:06;24.70;77.10
66190;DHT22;52992;52.084;5.412;2023-09-18T12:28:35;24.60;78.30
66190;DHT22;52992;52.084;5.412;2023-09-18T12:31:03;24.40;76.80
66190;DHT22;52992;52.084;5.412;2023-09-18T12:33:39;24.30;77.00
66190;DHT22;52992;52.084;5.412;2023-09-18T12:36:07;24.30;77.90
66190;DHT22;52992;52.084;5.412;2023-09-18T12:38:35;24.40;77.70
66190;DHT22;52992;52.084;5.412;2023-09-18T12:41:04;24.90;75.50
66190;DHT22;52992;52.084;5.412;2023-09-18T12:43:39;25.40;72.40
66190;DHT22;52992;52.084;5.412;2023-09-18T12:46:09;25.50;70.50
66190;DHT22;52992;52.084;5.412;2023-09-18T12:48:39;25.70;70.40
66190;DHT22;52992;52.084;5.412;2023-09-18T12:51:13;25.70;69.50
66190;DHT22;52992;52.084;5.412;2023-09-18T12:53:41;25.60;69.90
66190;DHT22;52992;52.084;5.412;2023-09-18T12:56:13;25.40;71.30
66190;DHT22;52992;52.084;5.412;2023-09-18T12:58:41;25.30;72.60
66190;DHT22;52992;52.084;5.412;2023-09-18T13:01:29;25.30;72.70
66190;DHT22;52992;52.084;5.412;2023-09-18T13:03:56;25.40;72.50
66190;DHT22;52992;52.084;5.412;2023-09-18T13:06:23;25.50;71.30
66190;DHT22;52992;52.084;5.412;2023-09-18T13:08:51;25.50;71.40
66190;DHT22;52992;52.084;5.412;2023-09-18T13:11:21;25.50;71.40
66190;DHT22;52992;52.084;5.412;2023-09-18T13:13:57;25.50;72.20
66190;DHT22;52992;52.084;5.412;2023-09-18T13:16:25;25.30;72.70
66190;DHT22;52992;52.084;5.412;2023-09-18T13:18:52;25.30;72.50
66190;DHT22;52992;52.084;5.412;2023-09-18T13:21:19;25.20;73.30
66190;DHT22;52992;52.084;5.412;2023-09-18T13:23:47;25.20;73.70
66190;DHT22;52992;52.084;5.412;2023-09-18T13:26:14;25.20;73.90
66190;DHT22;52992;52.084;5.412;2023-09-18T13:28:41;25.30;73.50
66190;DHT22;52992;52.084;5.412;2023-09-18T13:31:09;25.30;73.50
66190;DHT22;52992;52.084;5.412;2023-09-18T13:33:39;25.40;73.50
66190;DHT22;52992;52.084;5.412;2023-09-18T13:36:11;25.40;72.00
66190;DHT22;52992;52.084;5.412;2023-09-18T13:38:38;25.30;71.60
66190;DHT22;52992;52.084;5.412;2023-09-18T13:41:05;25.40;73.30
66190;DHT22;52992;52.084;5.412;2023-09-18T13:43:32;25.40;72.50
66190;DHT22;52992;52.084;5.412;2023-09-18T13:46:02;25.50;72.10
66190;DHT22;52992;52.084;5.412;2023-09-18T13:48:31;25.60;71.50
66190;DHT22;52992;52.084;5.412;2023-09-18T13:51:00;25.70;71.60
66190;DHT22;52992;52.084;5.412;2023-09-18T13:53:28;25.70;71.00
66190;DHT22;52992;52.084;5.412;2023-09-18T13:55:56;25.70;70.60
66190;DHT22;52992;52.084;5.412;2023-09-18T13:58:23;25.70;71.10
66190;DHT22;52992;52.084;5.412;2023-09-18T14:00:50;25.70;70.60
66190;DHT22;52992;52.084;5.412;2023-09-18T14:03:17;25.90;71.10
66190;DHT22;52992;52.084;5.412;2023-09-18T14:05:45;26.00;71.00
66190;DHT22;52992;52.084;5.412;2023-09-18T14:08:12;26.00;70.20
66190;DHT22;52992;52.084;5.412;2023-09-18T14:10:39;25.90;70.60
66190;DHT22;52992;52.084;5.412;2023-09-18T14:13:06;25.90;70.80
66190;DHT22;52992;52.084;5.412;2023-09-18T14:15:34;25.80;72.00
66190;DHT22;52992;52.084;5.412;2023-09-18T14:18:01;25.60;71.20
66190;DHT22;52992;52.084;5.412;2023-09-18T14:20:28;25.50;71.50
66190;DHT22;52992;52.084;5.412;2023-09-18T14:22:55;25.40;71.10
66190;DHT22;52992;52.084;5.412;2023-09-18T14:25:22;25.30;70.80
66190;DHT22;52992;52.084;5.412;2023-09-18T14:27:49;25.20;71.70
66190;DHT22;52992;52.084;5.412;2023-09-18T14:30:16;25.10;71.10
66190;DHT22;52992;52.084;5.412;2023-09-18T14:32:45;25.10;71.70
66190;DHT22;52992;52.084;5.412;2023-09-18T14:35:13;24.90;71.30
66190;DHT22;52992;52.084;5.412;2023-09-18T14:37:40;24.90;71.70
66190;DHT22;52992;52.084;5.412;2023-09-18T14:40:08;24.80;72.90
66190;DHT22;52992;52.084;5.412;2023-09-18T14:42:39;24.40;71.10
66190;DHT22;52992;52.084;5.412;2023-09-18T14:45:07;24.50;73.60
66190;DHT22;52992;52.084;5.412;2023-09-18T14:47:34;24.50;73.30
66190;DHT22;52992;52.084;5.412;2023-09-18T14:50:01;24.60;72.90
66190;DHT22;52992;52.084;5.412;2023-09-18T14:52:28;24.60;72.90
66190;DHT22;52992;52.084;5.412;2023-09-18T14:54:56;24.60;73.20
66190;DHT22;52992;52.084;5.412;2023-09-18T14:57:24;24.60;73.10
66190;DHT22;52992;52.084;5.412;2023-09-18T14:59:51;24.50;73.30
66190;DHT22;52992;52.084;5.412;2023-09-18T15:02:18;24.50;73.50
66190;DHT22;52992;52.084;5.412;2023-09-18T15:04:45;24.50;73.20
66190;DHT22;52992;52.084;5.412;2023-09-18T15:07:13;24.40;73.40
66190;DHT22;52992;52.084;5.412;2023-09-18T15:09:40;24.40;74.60
66190;DHT22;52992;52.084;5.412;2023-09-18T15:12:07;24.20;73.80
66190;DHT22;52992;52.084;5.412;2023-09-18T15:14:35;23.90;74.30
66190;DHT22;52992;52.084;5.412;2023-09-18T15:17:03;23.60;76.00
66190;DHT22;52992;52.084;5.412;2023-09-18T15:19:31;23.40;76.70
66190;DHT22;52992;52.084;5.412;2023-09-18T15:21:59;23.10;77.40
66190;DHT22;52992;52.084;5.412;2023-09-18T15:24:28;22.90;79.40
66190;DHT22;52992;52.084;5.412;2023-09-18T15:26:55;22.70;79.70
66190;DHT22;52992;52.084;5.412;2023-09-18T15:29:23;22.60;79.90
66190;DHT22;52992;52.084;5.412;2023-09-18T15:31:51;22.40;80.90
66190;DHT22;52992;52.084;5.412;2023-09-18T15:34:18;22.10;80.50
66190;DHT22;52992;52.084;5.412;2023-09-18T15:36:45;21.80;81.30
66190;DHT22;52992;52.084;5.412;2023-09-18T15:39:12;21.80;83.70
66190;DHT22;52992;52.084;5.412;2023-09-18T15:41:40;21.70;83.90
66190;DHT22;52992;52.084;5.412;2023-09-18T15:44:08;21.60;83.80
66190;DHT22;52992;52.084;5.412;2023-09-18T15:46:37;21.60;84.20
66190;DHT22;52992;52.084;5.412;2023-09-18T15:49:04;21.50;84.50
66190;DHT22;52992;52.084;5.412;2023-09-18T15:51:32;21.40;84.50
66190;DHT22;52992;52.084;5.412;2023-09-18T15:54:00;21.30;85.00